This demonstration page uses our WeatherBlox Daily Observations layout. Learn more.

39.92423, -83.80882

Hourly Observations for July 27, 2016

Temp ( °F °C ) Dew Point ( °F °C ) Humidity (%) Winds ( mph kmh ) Pressure ( in mb ) Visibility ( mi km ) Precip ( " mm )
12:56 am 00:56 Mostly Cloudy 71 21.7 70 21.1 96 96 Calm 30.01 1016 10 16.0934 0 0
1:56 am 01:56 Partly Cloudy 73 22.8 70 21.1 90 90 Calm 30 1016 10 16.0934 0 0
2:56 am 02:56 Clear 71 21.7 69 20.6 94 94 Calm 30 1016 10 16.0934 0 0
3:56 am 03:56 Clear 70 21.1 69 20.6 97 97 Calm 29.99 1016 10 16.0934 0 0
4:46 am 04:46 Clear with Mist and Fog 70 21 68 20 94 94 Calm 30 1016 2.5 4.02335 0 0
4:56 am 04:56 Clear with Mist and Fog 68 20 68 20 100 100 Calm 29.99 1016 2 3.21868 0 0
5:11 am 05:11 Clear with Mist and Fog 70 21 68 20 94 94 Calm 30 1016 0.75 1.207005 0 0
5:18 am 05:18 Clear with Fog 70 21 68 20 94 94 Calm 30 1016 0.5 0.80467 0 0
5:23 am 05:23 Clear with Mist and Fog 68 20 68 20 100 100 Calm 30 1016 1.25 2.011675 0 0
5:25 am 05:25 Clear with Mist and Fog 68 20 66 19 94 94 Calm 30 1016 5 8.0467 0 0
5:44 am 05:44 Partly Cloudy with Mist and Fog 68 20 66 19 94 94 Calm 30 1016 3 4.82802 0 0
5:53 am 05:53 Mostly Cloudy with Mist and Fog 68 20 68 20 100 100 Calm 30 1016 2.5 4.02335 0 0
5:56 am 05:56 Mostly Cloudy with Mist and Fog 68 20 68 20 100 100 Calm 30 1016 2.5 4.02335 0 0
6:09 am 06:09 Cloudy with Mist and Fog 68 20 68 20 100 100 Calm 30 1016 6 9.65604 0 0
6:24 am 06:24 Cloudy with Mist and Fog 66 19 66 19 100 100 Calm 30 1016 1.75 2.816345 0 0
6:46 am 06:46 Cloudy with Mist and Fog 68 20 66 19 94 94 E 3 6 30 1016 1.5 2.41401 0 0
6:49 am 06:49 Cloudy with Mist and Fog 68 20 66 19 94 94 ENE 3 6 30 1016 2.5 4.02335 0 0
6:56 am 06:56 Cloudy with Mist and Fog 68 20 67 19.4 96 96 Calm 30.01 1016 3 4.82802 0 0
7:56 am 07:56 Cloudy 71 21.7 70 21.1 96 96 Calm 30.03 1017 7 11.26538 0 0
8:28 am 08:28 Partly Cloudy 73 23 72 22 94 94 Calm 30.03 1017 9 14.48406 0 0
8:56 am 08:56 Sunny 76 24.4 72 22.2 88 88 Calm 30.03 1017 10 16.0934 0 0
9:56 am 09:56 Sunny 81 27.2 70 21.1 69 69 undefined N/A 30.02 1017 10 16.0934 0 0
10:56 am 10:56 Mostly Sunny 82 27.8 69 20.6 65 65 Calm 30.01 1016 10 16.0934 0 0
11:56 am 11:56 Sunny 82 27.8 70 21.1 67 67 SW 5 7 30.01 1016 10 16.0934 0 0
12:56 pm 12:56 Mostly Cloudy 86 30 70 21.1 59 59 W 5 7 30 1016 10 16.0934 0 0
1:56 pm 13:56 Partly Cloudy 86 30 69 20.6 57 57 Calm N/A 10 16.0934 0 0
2:56 pm 14:56 Partly Cloudy 88 31.1 69 20.6 54 54 WNW 5 7 N/A 10 16.0934 0 0
3:56 pm 15:56 Partly Cloudy 86 30 69 20.6 57 57 SE 3 6 29.96 1015 10 16.0934 0 0
4:56 pm 16:56 Sunny 89 31.7 67 19.4 48 48 VRB 5 7 29.94 1014 10 16.0934 0 0
5:56 pm 17:56 Mostly Sunny 88 31.1 66 18.9 48 48 W 8 13 29.93 1013 10 16.0934 0 0
7:56 pm 19:56 Sunny 85 29.4 66 18.9 53 53 NW 5 7 29.92 1013 10 16.0934 0 0
8:56 pm 20:56 Clear 78 25.6 66 18.9 67 67 W 3 6 29.91 1013 10 16.0934 0 0
9:56 pm 21:56 Mostly Clear 77 25 67 19.4 71 71 WNW 5 7 29.93 1014 10 16.0934 0 0
10:56 pm 22:56 Mostly Clear 77 25 66 18.9 69 69 NW 3 6 29.95 1014 10 16.0934 0 0
11:56 pm 23:56 Mostly Cloudy 77 25 66 18.9 69 69 Calm N/A 10 16.0934 0 0

Powered by AerisWeather